createdAt,value
2018-07-27T00:00:00.097Z,69.98
2018-07-27T00:00:59.972Z,69.98
2018-07-27T00:01:59.973Z,70.56
2018-07-27T00:02:59.972Z,70.26
2018-07-27T00:03:59.854Z,70.07
2018-07-27T00:04:59.852Z,70.26
2018-07-27T00:05:59.850Z,71.04
2018-07-27T00:06:59.735Z,70.84
2018-07-27T00:07:59.730Z,71.23
2018-07-27T00:08:59.730Z,70.94
2018-07-27T00:09:59.612Z,71.62
2018-07-27T00:10:59.610Z,71.62
2018-07-27T00:11:59.611Z,70.84
2018-07-27T00:12:59.493Z,70.17
2018-07-27T00:13:59.493Z,69.94
2018-07-27T00:14:59.493Z,70.52
2018-07-27T00:15:59.372Z,71.58
2018-07-27T00:16:59.371Z,71.78
2018-07-27T00:17:59.370Z,71.78
2018-07-27T00:18:59.247Z,71.97
2018-07-27T00:19:59.250Z,71.68
2018-07-27T00:20:59.246Z,71.68
2018-07-27T00:21:59.126Z,71.68
2018-07-27T00:22:59.127Z,71.78
2018-07-27T00:23:59.050Z,71.48
2018-07-27T00:24:59.016Z,71.00
2018-07-27T00:25:58.970Z,71.48
2018-07-27T00:26:58.933Z,71.88
2018-07-27T00:27:58.893Z,71.78
2018-07-27T00:28:58.861Z,72.36
2018-07-27T00:29:58.817Z,72.06
2018-07-27T00:30:58.778Z,72.06
2018-07-27T00:31:58.740Z,72.36
2018-07-27T00:32:58.700Z,71.74
2018-07-27T00:33:58.662Z,72.13
2018-07-27T00:34:58.621Z,72.71
2018-07-27T00:35:58.585Z,72.90
2018-07-27T00:36:58.542Z,72.80
2018-07-27T00:37:58.503Z,73.28
2018-07-27T00:38:58.466Z,72.80
2018-07-27T00:39:58.429Z,72.22
2018-07-27T00:40:58.387Z,72.22
2018-07-27T00:41:58.348Z,72.03
2018-07-27T00:42:58.309Z,73.19
2018-07-27T00:43:58.270Z,72.90
2018-07-27T00:44:58.231Z,73.00
2018-07-27T00:45:58.196Z,72.32
2018-07-27T00:46:58.154Z,73.19
2018-07-27T00:47:58.114Z,72.71
2018-07-27T00:48:58.074Z,72.13
2018-07-27T00:49:58.034Z,72.71
2018-07-27T00:50:58.001Z,73.00
2018-07-27T00:51:57.963Z,73.15
2018-07-27T00:52:57.923Z,72.32
2018-07-27T00:53:57.878Z,72.38
2018-07-27T00:55:57.803Z,72.48
2018-07-27T00:56:57.765Z,73.06
2018-07-27T00:57:57.724Z,73.15
2018-07-27T00:58:57.682Z,73.06
2018-07-27T00:59:57.643Z,73.15
2018-07-27T01:00:57.604Z,72.96
2018-07-27T01:01:57.563Z,72.96
2018-07-27T01:02:57.525Z,72.38
2018-07-27T01:03:57.487Z,73.15
2018-07-27T01:04:57.457Z,73.15
2018-07-27T01:05:57.408Z,73.06
2018-07-27T01:06:57.372Z,72.96
2018-07-27T01:07:57.329Z,73.35
2018-07-27T01:08:57.293Z,73.44
2018-07-27T01:09:57.249Z,74.18
2018-07-27T01:10:57.307Z,74.89
2018-07-27T01:11:57.176Z,75.47
2018-07-27T01:12:57.178Z,75.57
2018-07-27T01:13:57.177Z,75.76
2018-07-27T01:14:57.055Z,75.92
2018-07-27T01:15:57.056Z,75.62
2018-07-27T01:16:57.054Z,76.20
2018-07-27T01:17:57.014Z,76.40
2018-07-27T01:18:56.932Z,76.40
2018-07-27T01:19:56.936Z,76.40
2018-07-27T01:20:56.932Z,76.59
2018-07-27T01:21:56.812Z,76.59
2018-07-27T01:22:56.810Z,75.53
2018-07-27T01:23:56.812Z,76.01
2018-07-27T01:24:56.691Z,76.59
2018-07-27T01:25:56.692Z,76.30
2018-07-27T01:26:56.690Z,77.17
2018-07-27T01:27:56.571Z,77.07
2018-07-27T01:28:56.570Z,77.46
2018-07-27T01:29:56.569Z,76.88
2018-07-27T01:30:56.449Z,76.20
2018-07-27T01:31:56.448Z,76.88
2018-07-27T01:32:56.448Z,76.98
2018-07-27T01:33:56.333Z,76.36
2018-07-27T01:34:56.328Z,76.17
2018-07-27T01:35:56.332Z,77.23
2018-07-27T01:36:56.208Z,76.93
2018-07-27T01:37:56.211Z,77.61
2018-07-27T01:38:56.212Z,78.00
2018-07-27T01:39:56.091Z,79.16
2018-07-27T01:40:56.088Z,78.48
2018-07-27T01:41:56.086Z,78.58
2018-07-27T01:42:55.966Z,79.06
2018-07-27T01:43:55.968Z,78.09
2018-07-27T01:44:55.971Z,78.86
2018-07-27T01:45:55.847Z,79.16
2018-07-27T01:46:55.847Z,78.77
2018-07-27T01:47:55.848Z,78.67
2018-07-27T01:48:55.728Z,78.48
2018-07-27T01:49:55.726Z,79.25
2018-07-27T01:50:55.759Z,78.48
2018-07-27T01:51:55.604Z,78.77
2018-07-27T01:52:55.604Z,78.29
2018-07-27T01:53:55.607Z,78.67
2018-07-27T01:54:55.485Z,78.77
2018-07-27T01:55:55.483Z,78.96
2018-07-27T01:56:55.483Z,78.77
2018-07-27T01:57:55.362Z,78.00
2018-07-27T01:58:55.401Z,77.67
2018-07-27T01:59:55.363Z,78.44
2018-07-27T02:00:55.242Z,78.92
2018-07-27T02:01:55.244Z,79.21
2018-07-27T02:02:55.243Z,79.50
2018-07-27T02:03:55.122Z,79.89
2018-07-27T02:04:55.122Z,80.27
2018-07-27T02:05:55.144Z,80.46
2018-07-27T02:06:55.005Z,80.46
2018-07-27T02:07:55.004Z,80.56
2018-07-27T02:08:55.004Z,80.46
2018-07-27T02:09:54.882Z,80.37
2018-07-27T02:10:54.880Z,81.04
2018-07-27T02:11:54.882Z,80.94
2018-07-27T02:12:54.769Z,81.04
2018-07-27T02:13:54.763Z,81.24
2018-07-27T02:14:54.762Z,80.76
2018-07-27T02:15:54.643Z,81.52
2018-07-27T02:16:54.639Z,81.48
2018-07-27T02:17:54.644Z,81.39
2018-07-27T02:18:54.522Z,81.29
2018-07-27T02:19:54.523Z,81.29
2018-07-27T02:20:54.519Z,81.96
2018-07-27T02:21:54.399Z,81.77
2018-07-27T02:22:54.398Z,82.06
2018-07-27T02:23:54.396Z,82.06
2018-07-27T02:24:54.281Z,82.45
2018-07-27T02:25:54.276Z,82.45
2018-07-27T02:26:54.276Z,83.22
2018-07-27T02:27:54.159Z,82.93
2018-07-27T02:28:54.159Z,83.31
2018-07-27T02:29:54.156Z,83.51
2018-07-27T02:30:54.036Z,83.89
2018-07-27T02:31:54.036Z,83.41
2018-07-27T02:32:54.037Z,83.51
2018-07-27T02:33:54.071Z,83.22
2018-07-27T02:34:54.600Z,82.83
2018-07-27T02:35:53.916Z,83.61
2018-07-27T02:36:53.795Z,83.61
2018-07-27T02:37:53.797Z,83.56
2018-07-27T02:38:53.795Z,83.85
2018-07-27T02:39:53.703Z,83.56
2018-07-27T02:40:53.675Z,84.14
2018-07-27T02:41:53.675Z,83.66
2018-07-27T02:42:53.559Z,83.85
2018-07-27T02:43:53.560Z,83.47
2018-07-27T02:44:53.632Z,83.66
2018-07-27T02:45:53.549Z,83.75
2018-07-27T02:46:53.563Z,84.33
2018-07-27T02:47:53.521Z,83.95
2018-07-27T02:48:53.313Z,83.95
2018-07-27T02:49:53.312Z,84.05
2018-07-27T02:50:53.311Z,84.72
2018-07-27T02:51:53.191Z,84.62
2018-07-27T02:52:53.190Z,84.53
2018-07-27T02:53:53.196Z,85.30
2018-07-27T02:54:53.151Z,85.39
2018-07-27T02:55:53.079Z,85.68
2018-07-27T02:56:53.071Z,85.35
2018-07-27T02:57:52.951Z,85.35
2018-07-27T02:58:52.949Z,85.35
2018-07-27T02:59:52.950Z,85.97
2018-07-27T03:00:52.832Z,85.74
2018-07-27T03:01:52.831Z,85.83
2018-07-27T03:02:52.832Z,86.31
2018-07-27T03:03:52.707Z,86.69
2018-07-27T03:04:52.712Z,87.56
2018-07-27T03:05:52.715Z,87.27
2018-07-27T03:06:52.591Z,87.56
2018-07-27T03:07:52.589Z,87.95
2018-07-27T03:08:52.596Z,87.46
2018-07-27T03:09:52.494Z,87.56
2018-07-27T03:10:52.468Z,87.27
2018-07-27T03:11:52.472Z,87.56
2018-07-27T03:12:52.347Z,87.37
2018-07-27T03:13:52.352Z,87.27
2018-07-27T03:14:52.352Z,87.18
2018-07-27T03:15:52.225Z,87.85
2018-07-27T03:16:52.227Z,87.56
2018-07-27T03:17:52.225Z,87.66
2018-07-27T03:18:52.106Z,87.56
2018-07-27T03:19:52.106Z,87.46
2018-07-27T03:20:52.106Z,87.95
2018-07-27T03:21:51.985Z,87.46
2018-07-27T03:22:51.986Z,87.66
2018-07-27T03:23:51.985Z,87.46
2018-07-27T03:24:51.870Z,87.95
2018-07-27T03:25:51.866Z,87.76
2018-07-27T03:26:51.864Z,87.56
2018-07-27T03:27:51.742Z,88.24
2018-07-27T03:28:51.751Z,87.56
2018-07-27T03:29:51.744Z,87.76
2018-07-27T03:30:51.624Z,87.76
2018-07-27T03:31:51.623Z,87.76
2018-07-27T03:32:51.622Z,87.85
2018-07-27T03:33:51.502Z,87.46
2018-07-27T03:34:51.505Z,88.53
2018-07-27T03:35:51.505Z,87.76
2018-07-27T03:36:51.382Z,87.66
2018-07-27T03:37:51.382Z,87.76
2018-07-27T03:38:51.382Z,87.66
2018-07-27T03:39:51.261Z,88.24
2018-07-27T03:40:51.265Z,88.43
2018-07-27T03:41:51.261Z,87.46
2018-07-27T03:42:51.140Z,88.33
2018-07-27T03:43:51.219Z,87.81
2018-07-27T03:44:51.146Z,88.14
2018-07-27T03:45:51.021Z,87.76
2018-07-27T03:46:51.023Z,88.43
2018-07-27T03:47:51.023Z,87.56
2018-07-27T03:48:50.899Z,87.85
2018-07-27T03:49:50.899Z,87.85
2018-07-27T03:50:50.898Z,87.76
2018-07-27T03:51:50.780Z,87.46
2018-07-27T03:52:50.780Z,87.27
2018-07-27T03:53:50.778Z,87.08
2018-07-27T03:54:50.659Z,87.37
2018-07-27T03:55:50.658Z,87.37
2018-07-27T03:56:50.657Z,87.27
2018-07-27T03:57:50.537Z,87.27
2018-07-27T03:58:50.536Z,87.46
2018-07-27T03:59:50.539Z,86.69
2018-07-27T04:00:50.422Z,86.60
2018-07-27T04:01:50.417Z,86.02
2018-07-27T04:02:50.419Z,86.02
2018-07-27T04:03:50.296Z,86.22
2018-07-27T04:04:50.299Z,86.02
2018-07-27T04:05:50.298Z,85.93
2018-07-27T04:06:50.178Z,86.22
2018-07-27T04:07:50.176Z,85.54
2018-07-27T04:08:50.176Z,84.97
2018-07-27T04:09:50.057Z,85.44
2018-07-27T04:10:50.054Z,85.16
2018-07-27T04:11:50.055Z,85.16
2018-07-27T04:12:49.935Z,84.97
2018-07-27T04:13:49.935Z,85.16
2018-07-27T04:14:49.945Z,84.48
2018-07-27T04:15:49.813Z,84.97
2018-07-27T04:16:49.814Z,85.06
2018-07-27T04:17:49.813Z,84.87
2018-07-27T04:18:49.694Z,84.87
2018-07-27T04:19:49.692Z,84.77
2018-07-27T04:20:49.693Z,84.29
2018-07-27T04:21:49.573Z,84.10
2018-07-27T04:22:49.573Z,84.48
2018-07-27T04:23:49.574Z,85.06
2018-07-27T04:24:49.452Z,85.25
2018-07-27T04:25:49.452Z,84.58
2018-07-27T04:26:49.450Z,84.87
2018-07-27T04:27:49.330Z,84.67
2018-07-27T04:28:49.331Z,84.39
2018-07-27T04:29:49.332Z,84.67
2018-07-27T04:30:49.218Z,84.77
2018-07-27T04:31:49.211Z,84.10
2018-07-27T04:32:49.211Z,83.91
2018-07-27T04:33:49.089Z,83.04
2018-07-27T04:34:49.094Z,82.27
2018-07-27T04:35:49.118Z,81.50
2018-07-27T04:36:48.970Z,80.96
2018-07-27T04:37:48.971Z,80.48
2018-07-27T04:38:48.970Z,79.71
2018-07-27T04:39:48.851Z,80.00
2018-07-27T04:40:48.847Z,80.29
2018-07-27T04:41:48.848Z,80.68
2018-07-27T04:42:48.768Z,79.81
2018-07-27T04:43:48.729Z,78.65
2018-07-27T04:44:48.729Z,79.33
2018-07-27T04:45:48.610Z,80.10
2018-07-27T04:46:48.612Z,80.10
2018-07-27T04:47:48.615Z,79.81
2018-07-27T04:48:48.486Z,80.10
2018-07-27T04:49:48.487Z,79.03
2018-07-27T04:50:48.489Z,78.27
2018-07-27T04:51:48.365Z,78.17
2018-07-27T04:52:48.368Z,78.11
2018-07-27T04:53:48.366Z,78.02
2018-07-27T04:54:48.244Z,78.50
2018-07-27T04:55:48.244Z,78.59
2018-07-27T04:56:48.302Z,79.36
2018-07-27T04:57:48.128Z,78.98
2018-07-27T04:58:48.125Z,78.11
2018-07-27T04:59:48.122Z,78.11
2018-07-27T05:00:48.006Z,77.53
2018-07-27T05:01:48.002Z,76.48
2018-07-27T05:02:48.003Z,76.96
2018-07-27T05:03:47.881Z,76.76
2018-07-27T05:04:47.907Z,78.40
2018-07-27T05:05:47.882Z,77.06
2018-07-27T05:06:47.760Z,77.34
2018-07-27T05:07:47.761Z,76.32
2018-07-27T05:08:47.761Z,76.32
2018-07-27T05:09:47.643Z,75.07
2018-07-27T05:10:47.641Z,74.78
2018-07-27T05:11:47.645Z,75.36
2018-07-27T05:12:47.520Z,75.55
2018-07-27T05:13:47.521Z,74.49
2018-07-27T05:14:47.519Z,75.07
2018-07-27T05:15:47.402Z,75.93
2018-07-27T05:16:47.400Z,75.26
2018-07-27T05:17:47.399Z,75.45
2018-07-27T05:18:47.278Z,75.45
2018-07-27T05:19:47.278Z,74.68
2018-07-27T05:20:47.280Z,74.62
2018-07-27T05:21:47.159Z,75.20
2018-07-27T05:22:47.157Z,75.30
2018-07-27T05:23:47.161Z,75.10
2018-07-27T05:24:47.041Z,74.72
2018-07-27T05:25:47.039Z,75.10
2018-07-27T05:26:47.037Z,74.62
2018-07-27T05:27:46.916Z,74.24
2018-07-27T05:28:46.919Z,73.27
2018-07-27T05:29:46.917Z,75.78
2018-07-27T05:30:46.799Z,74.82
2018-07-27T05:31:46.795Z,75.20
2018-07-27T05:32:46.797Z,75.10
2018-07-27T05:33:46.677Z,75.10
2018-07-27T05:34:46.675Z,74.08
2018-07-27T05:35:46.673Z,75.34
2018-07-27T05:36:46.553Z,75.14
2018-07-27T05:37:46.552Z,75.43
2018-07-27T05:38:46.554Z,74.08
2018-07-27T05:39:46.441Z,73.69
2018-07-27T05:40:46.430Z,72.92
2018-07-27T05:41:46.433Z,73.89
2018-07-27T05:42:46.316Z,74.95
2018-07-27T05:43:46.310Z,74.37
2018-07-27T05:44:46.311Z,74.08
2018-07-27T05:45:46.189Z,73.44
2018-07-27T05:46:46.221Z,73.79
2018-07-27T05:47:46.190Z,72.25
2018-07-27T05:48:46.144Z,72.48
2018-07-27T05:49:46.067Z,72.48
2018-07-27T05:50:46.072Z,73.93
2018-07-27T05:51:45.949Z,72.67
2018-07-27T05:52:46.012Z,72.48
2018-07-27T05:53:45.947Z,71.32
2018-07-27T05:54:45.827Z,71.42
2018-07-27T05:55:45.828Z,71.12
2018-07-27T05:56:45.826Z,70.54
2018-07-27T05:57:45.707Z,71.22
2018-07-27T05:58:45.708Z,72.00
2018-07-27T05:59:45.714Z,71.84
2018-07-27T06:00:45.587Z,70.29
2018-07-27T06:01:45.585Z,70.10
2018-07-27T06:02:45.675Z,69.13
2018-07-27T06:03:45.466Z,68.94
2018-07-27T06:04:45.491Z,69.13
2018-07-27T06:05:45.464Z,69.23
2018-07-27T06:06:45.345Z,70.00
2018-07-27T06:07:45.346Z,68.26
2018-07-27T06:08:45.351Z,69.65
2018-07-27T06:09:45.224Z,68.84
2018-07-27T06:10:45.227Z,68.88
2018-07-27T06:11:45.223Z,68.20
2018-07-27T06:12:45.182Z,68.88
2018-07-27T06:13:45.104Z,68.59
2018-07-27T06:14:45.103Z,68.59
2018-07-27T06:15:45.103Z,67.82
2018-07-27T06:16:44.987Z,67.82
2018-07-27T06:17:45.008Z,67.24
2018-07-27T06:18:44.985Z,67.08
2018-07-27T06:19:44.866Z,66.36
2018-07-27T06:20:44.861Z,67.17
2018-07-27T06:21:44.868Z,65.82
2018-07-27T06:22:44.743Z,66.01
2018-07-27T06:23:44.773Z,67.56
2018-07-27T06:24:44.740Z,68.33
2018-07-27T06:25:44.639Z,67.08
2018-07-27T06:26:44.621Z,66.50
2018-07-27T06:27:44.622Z,67.11
2018-07-27T06:28:44.500Z,66.72
2018-07-27T06:29:44.513Z,67.40
2018-07-27T06:30:44.504Z,67.21
2018-07-27T06:31:44.379Z,67.40
2018-07-27T06:32:44.325Z,67.30
2018-07-27T06:33:44.287Z,66.33
2018-07-27T06:34:44.249Z,65.37
2018-07-27T06:35:44.210Z,66.43
2018-07-27T06:36:44.171Z,66.85
2018-07-27T06:37:44.236Z,66.75
2018-07-27T06:38:44.117Z,66.95
2018-07-27T06:39:44.117Z,65.79
2018-07-27T06:40:44.117Z,65.59
2018-07-27T06:41:43.995Z,66.17
2018-07-27T06:42:43.997Z,65.98
2018-07-27T06:43:43.996Z,64.92
2018-07-27T06:44:43.878Z,66.37
2018-07-27T06:45:43.875Z,65.88
2018-07-27T06:46:43.873Z,65.63
2018-07-27T06:47:43.753Z,65.92
2018-07-27T06:48:43.752Z,66.40
2018-07-27T06:49:43.757Z,65.63
2018-07-27T06:50:43.631Z,64.85
2018-07-27T06:51:43.634Z,64.56
2018-07-27T06:52:43.634Z,64.27
2018-07-27T06:53:43.591Z,64.95
2018-07-27T06:54:43.514Z,64.98
2018-07-27T06:55:43.512Z,65.66
2018-07-27T06:56:43.511Z,64.89
2018-07-27T06:57:43.396Z,64.01
2018-07-27T06:58:43.393Z,64.69
2018-07-27T06:59:43.396Z,63.72
2018-07-27T07:00:43.269Z,63.82
2018-07-27T07:01:43.269Z,62.85
2018-07-27T07:02:43.269Z,62.59
2018-07-27T07:03:43.152Z,62.79
2018-07-27T07:04:43.150Z,62.79
2018-07-27T07:05:43.150Z,63.56
2018-07-27T07:06:43.031Z,63.75
2018-07-27T07:07:43.029Z,62.88
2018-07-27T07:08:43.030Z,63.65
2018-07-27T07:09:42.908Z,63.88
2018-07-27T07:10:42.917Z,64.17
2018-07-27T07:11:42.908Z,63.20
2018-07-27T07:12:42.865Z,61.36
2018-07-27T07:13:42.793Z,62.62
2018-07-27T07:14:42.788Z,61.55
2018-07-27T07:15:42.787Z,61.26
2018-07-27T07:16:42.673Z,61.65
2018-07-27T07:17:42.674Z,62.52
2018-07-27T07:18:42.670Z,61.49
2018-07-27T07:19:42.547Z,61.78
2018-07-27T07:20:42.547Z,62.36
2018-07-27T07:21:42.547Z,63.43
2018-07-27T07:22:42.425Z,62.46
2018-07-27T07:23:42.426Z,62.95
2018-07-27T07:24:42.427Z,59.84
2018-07-27T07:25:42.487Z,60.23
2018-07-27T07:26:42.306Z,60.84
2018-07-27T07:27:42.311Z,60.94
2018-07-27T07:28:42.300Z,61.32
2018-07-27T07:29:42.198Z,60.45
2018-07-27T07:30:42.182Z,59.87
2018-07-27T07:31:42.184Z,59.87
2018-07-27T07:32:42.064Z,59.67
2018-07-27T07:33:42.066Z,60.28
2018-07-27T07:34:42.066Z,60.48
2018-07-27T07:35:41.941Z,60.00
2018-07-27T07:36:41.942Z,59.80
2018-07-27T07:37:41.941Z,60.28
2018-07-27T07:38:41.826Z,59.41
2018-07-27T07:39:41.821Z,59.03
2018-07-27T07:40:41.821Z,59.25
2018-07-27T07:41:41.707Z,59.22
2018-07-27T07:42:41.703Z,58.57
2018-07-27T07:43:41.747Z,58.57
2018-07-27T07:44:41.706Z,58.28
2018-07-27T07:45:41.655Z,57.69
2018-07-27T07:46:41.605Z,57.01
2018-07-27T07:47:41.579Z,57.62
2018-07-27T07:48:41.459Z,57.98
2018-07-27T07:49:41.459Z,56.85
2018-07-27T07:50:41.462Z,57.04
2018-07-27T07:51:41.340Z,57.53
2018-07-27T07:52:41.339Z,57.72
2018-07-27T07:53:41.338Z,56.85
2018-07-27T07:54:41.218Z,56.85
2018-07-27T07:55:41.217Z,58.50
2018-07-27T07:56:41.253Z,57.17
2018-07-27T07:57:41.216Z,56.68
2018-07-27T07:58:41.205Z,55.80
2018-07-27T07:59:41.097Z,56.29
2018-07-27T08:00:41.100Z,55.80
2018-07-27T08:01:40.977Z,56.29
2018-07-27T08:02:40.974Z,55.44
2018-07-27T08:03:40.975Z,55.41
2018-07-27T08:04:40.854Z,55.35
2018-07-27T08:05:40.967Z,52.43
2018-07-27T08:06:40.857Z,54.38
2018-07-27T08:07:40.825Z,55.35
2018-07-27T08:08:40.737Z,55.54
2018-07-27T08:09:40.738Z,54.30
2018-07-27T08:10:40.733Z,54.30
2018-07-27T08:11:40.612Z,54.50
2018-07-27T08:12:40.623Z,54.50
2018-07-27T08:13:40.618Z,54.72
2018-07-27T08:14:40.491Z,54.30
2018-07-27T08:15:40.491Z,54.43
2018-07-27T08:16:40.493Z,54.23
2018-07-27T08:17:40.375Z,54.03
2018-07-27T08:18:40.371Z,53.16
2018-07-27T08:19:40.370Z,53.06
2018-07-27T08:20:40.372Z,54.13
2018-07-27T08:21:40.252Z,53.48
2018-07-27T08:22:40.256Z,52.80
2018-07-27T08:23:40.253Z,53.28
2018-07-27T08:24:40.132Z,52.92
2018-07-27T08:25:40.128Z,52.31
2018-07-27T08:26:40.129Z,52.44
2018-07-27T08:27:40.087Z,52.63
2018-07-27T08:28:40.009Z,51.65
2018-07-27T08:29:40.010Z,51.65
2018-07-27T08:30:40.008Z,51.75
2018-07-27T08:31:39.891Z,51.85
2018-07-27T08:32:39.888Z,51.26
2018-07-27T08:33:39.889Z,51.46
2018-07-27T08:34:39.769Z,50.70
2018-07-27T08:35:39.769Z,50.80
2018-07-27T08:36:39.766Z,50.90
2018-07-27T08:37:39.769Z,50.70
2018-07-27T08:38:39.650Z,50.51
2018-07-27T08:39:39.687Z,50.02
2018-07-27T08:40:39.649Z,49.93
2018-07-27T08:41:39.529Z,49.76
2018-07-27T08:42:39.525Z,49.76
2018-07-27T08:43:39.527Z,49.37
2018-07-27T08:44:39.407Z,49.66
2018-07-27T08:45:39.405Z,49.07
2018-07-27T08:46:39.408Z,48.88
2018-07-27T08:47:39.406Z,48.68
2018-07-27T08:48:39.285Z,49.19
2018-07-27T08:49:39.291Z,48.12
2018-07-27T08:50:39.284Z,48.41
2018-07-27T08:51:39.168Z,48.32
2018-07-27T08:52:39.162Z,47.07
2018-07-27T08:53:39.083Z,47.17
2018-07-27T08:54:39.048Z,46.97
2018-07-27T08:55:39.018Z,48.05
2018-07-27T08:56:38.979Z,48.05
2018-07-27T08:57:38.941Z,46.29
2018-07-27T08:58:38.908Z,46.31
2018-07-27T08:59:38.872Z,44.84
2018-07-27T09:00:38.885Z,44.57
2018-07-27T09:01:38.872Z,44.87
2018-07-27T09:02:38.870Z,43.49
2018-07-27T09:03:38.751Z,43.91
2018-07-27T09:04:38.753Z,43.52
2018-07-27T09:05:38.753Z,43.84
2018-07-27T09:06:38.629Z,42.07
2018-07-27T09:07:38.631Z,42.66
2018-07-27T09:08:38.630Z,42.19
2018-07-27T09:09:38.629Z,40.63
2018-07-27T09:10:38.509Z,40.33
2018-07-27T09:11:38.511Z,40.84
2018-07-27T09:12:38.513Z,42.02
2018-07-27T09:13:38.391Z,41.23
2018-07-27T09:14:38.389Z,41.64
2018-07-27T09:15:38.388Z,41.05
2018-07-27T09:16:38.388Z,41.25
2018-07-27T09:17:38.270Z,41.42
2018-07-27T09:18:38.267Z,39.49
2018-07-27T09:19:38.270Z,39.59
2018-07-27T09:20:38.150Z,39.00
2018-07-27T09:21:38.146Z,39.59
2018-07-27T09:22:38.145Z,40.00
2018-07-27T09:23:38.042Z,39.70
2018-07-27T09:24:38.208Z,39.61
2018-07-27T09:25:39.077Z,39.61
2018-07-27T09:26:37.943Z,39.80
2018-07-27T09:27:37.908Z,39.51
2018-07-27T09:28:37.873Z,40.00
2018-07-27T09:29:37.842Z,39.41
2018-07-27T09:30:37.807Z,39.41
2018-07-27T09:31:37.772Z,39.01
2018-07-27T09:32:37.739Z,38.92
2018-07-27T09:33:37.706Z,38.53
2018-07-27T09:34:37.670Z,38.72
2018-07-27T09:35:37.639Z,38.13
2018-07-27T09:36:37.605Z,38.62
2018-07-27T09:37:37.570Z,38.33
2018-07-27T09:38:37.535Z,38.33
2018-07-27T09:39:37.502Z,37.74
2018-07-27T09:40:37.483Z,37.54
2018-07-27T09:41:37.439Z,37.86
2018-07-27T09:42:37.404Z,37.66
2018-07-27T09:43:37.369Z,37.76
2018-07-27T09:44:37.337Z,37.56
2018-07-27T09:45:37.300Z,37.17
2018-07-27T09:46:37.474Z,37.46
2018-07-27T09:47:37.349Z,37.86
2018-07-27T09:48:37.233Z,37.56
2018-07-27T09:49:37.228Z,37.46
2018-07-27T09:50:37.230Z,37.86
2018-07-27T09:51:37.162Z,38.54
2018-07-27T09:52:37.106Z,37.29
2018-07-27T09:53:37.108Z,37.78
2018-07-27T09:54:37.105Z,37.48
2018-07-27T09:55:36.988Z,37.09
2018-07-27T09:56:36.984Z,37.19
2018-07-27T09:57:36.987Z,37.19
2018-07-27T09:58:36.943Z,36.99
2018-07-27T09:59:36.865Z,36.90
2018-07-27T10:00:36.867Z,35.93
2018-07-27T10:01:36.865Z,36.32
2018-07-27T10:02:36.745Z,36.32
2018-07-27T10:03:36.747Z,36.42
2018-07-27T10:04:36.745Z,35.54
2018-07-27T10:05:36.744Z,36.22
2018-07-27T10:06:36.622Z,36.22
2018-07-27T10:07:36.625Z,35.14
2018-07-27T10:08:36.629Z,35.54
2018-07-27T10:09:36.618Z,35.83
2018-07-27T10:10:36.503Z,36.54
2018-07-27T10:11:36.508Z,36.24
2018-07-27T10:12:36.501Z,35.06
2018-07-27T10:13:36.384Z,34.77
2018-07-27T10:14:36.380Z,34.97
2018-07-27T10:15:36.380Z,35.26
2018-07-27T10:16:36.381Z,35.16
2018-07-27T10:17:36.270Z,34.77
2018-07-27T10:18:36.278Z,34.87
2018-07-27T10:19:36.338Z,35.06
2018-07-27T10:20:36.228Z,35.08
2018-07-27T10:21:36.144Z,34.59
2018-07-27T10:22:36.139Z,33.41
2018-07-27T10:23:36.145Z,34.10
2018-07-27T10:24:36.018Z,34.00
2018-07-27T10:25:36.021Z,33.91
2018-07-27T10:26:39.617Z,34.39
2018-07-27T10:27:36.017Z,34.78
2018-07-27T10:28:35.901Z,33.70
2018-07-27T10:29:35.896Z,33.82
2018-07-27T10:30:35.895Z,34.01
2018-07-27T10:31:35.897Z,34.01
2018-07-27T10:32:35.778Z,33.94
2018-07-27T10:33:35.776Z,33.44
2018-07-27T10:34:35.782Z,32.97
2018-07-27T10:35:35.656Z,32.28
2018-07-27T10:36:35.654Z,31.60
2018-07-27T10:37:35.656Z,31.80
2018-07-27T10:38:35.699Z,32.01
2018-07-27T10:39:35.546Z,32.21
2018-07-27T10:40:35.534Z,31.63
2018-07-27T10:41:35.535Z,30.94
2018-07-27T10:42:35.532Z,30.16
2018-07-27T10:43:35.413Z,30.26
2018-07-27T10:44:35.415Z,31.34
2018-07-27T10:45:35.416Z,31.83
2018-07-27T10:46:35.411Z,30.83
2018-07-27T10:47:35.292Z,30.34
2018-07-27T10:48:35.293Z,31.03
2018-07-27T10:49:35.294Z,30.72
2018-07-27T10:50:35.173Z,31.11
2018-07-27T10:51:35.173Z,30.82
2018-07-27T10:52:35.285Z,31.01
2018-07-27T10:53:35.170Z,31.80
2018-07-27T10:54:35.051Z,31.11
2018-07-27T10:55:35.050Z,30.91
2018-07-27T10:56:35.051Z,30.21
2018-07-27T10:57:35.051Z,30.51
2018-07-27T10:58:34.935Z,31.69
2018-07-27T10:59:34.931Z,31.29
2018-07-27T11:00:34.929Z,31.79
2018-07-27T11:01:34.929Z,31.29
2018-07-27T11:02:34.809Z,31.49
2018-07-27T11:03:34.810Z,31.59
2018-07-27T11:04:34.810Z,30.41
2018-07-27T11:05:34.768Z,31.00
2018-07-27T11:06:34.690Z,31.39
2018-07-27T11:07:34.691Z,31.29
2018-07-27T11:08:34.688Z,30.91
2018-07-27T11:09:34.571Z,30.51
2018-07-27T11:10:34.568Z,31.70
2018-07-27T11:11:34.567Z,31.90
2018-07-27T11:12:34.567Z,31.60
2018-07-27T11:13:34.445Z,31.39
2018-07-27T11:14:34.451Z,31.98
2018-07-27T11:15:34.446Z,31.69
2018-07-27T11:16:34.452Z,31.79
2018-07-27T11:17:34.358Z,31.11
2018-07-27T11:18:34.327Z,31.90
2018-07-27T11:19:34.325Z,31.31
2018-07-27T11:20:34.326Z,30.41
2018-07-27T11:21:34.204Z,30.80
2018-07-27T11:22:34.204Z,30.11
2018-07-27T11:23:34.206Z,30.02
2018-07-27T11:24:34.086Z,31.20
2018-07-27T11:25:34.111Z,30.13
2018-07-27T11:26:34.083Z,30.51
2018-07-27T11:27:34.084Z,31.31
2018-07-27T11:28:34.045Z,30.82
2018-07-27T11:29:33.970Z,31.01
2018-07-27T11:30:33.967Z,30.43
2018-07-27T11:31:33.963Z,31.01
2018-07-27T11:32:33.840Z,30.62
2018-07-27T11:33:33.841Z,30.52
2018-07-27T11:34:33.845Z,30.43
2018-07-27T11:35:33.840Z,30.82
2018-07-27T11:36:33.719Z,30.52
2018-07-27T11:37:33.721Z,29.14
2018-07-27T11:38:33.656Z,29.24
2018-07-27T11:39:33.605Z,30.13
2018-07-27T11:40:33.576Z,30.13
2018-07-27T11:41:33.542Z,29.83
2018-07-27T11:42:33.557Z,30.13
2018-07-27T11:43:33.477Z,30.03
2018-07-27T11:44:33.446Z,30.21
2018-07-27T11:45:33.413Z,30.31
2018-07-27T11:46:33.385Z,30.21
2018-07-27T11:47:33.351Z,30.41
2018-07-27T11:48:33.320Z,30.02
2018-07-27T11:49:33.298Z,30.41
2018-07-27T11:50:33.254Z,30.41
2018-07-27T11:51:33.222Z,30.60
2018-07-27T11:52:33.191Z,30.49
2018-07-27T11:53:33.159Z,30.88
2018-07-27T11:54:33.126Z,30.60
2018-07-27T11:55:33.095Z,30.90
2018-07-27T11:56:33.063Z,30.71
2018-07-27T11:57:33.028Z,30.80
2018-07-27T11:58:32.997Z,30.82
2018-07-27T11:59:32.966Z,30.15
2018-07-27T12:00:32.933Z,30.16
2018-07-27T12:01:32.955Z,29.86
2018-07-27T12:02:32.871Z,29.20
2018-07-27T12:03:32.838Z,29.51
2018-07-27T12:04:32.807Z,29.52
2018-07-27T12:05:32.777Z,26.97
2018-07-27T12:06:32.741Z,27.67
2018-07-27T12:07:32.712Z,26.60
2018-07-27T12:08:32.681Z,26.62
2018-07-27T12:09:32.645Z,25.65
2018-07-27T12:10:32.616Z,24.56
2018-07-27T12:11:32.582Z,25.66
2018-07-27T12:12:32.551Z,25.57
2018-07-27T12:13:32.524Z,25.57
2018-07-27T12:14:32.648Z,25.48
2018-07-27T12:15:32.458Z,25.46
2018-07-27T12:16:32.427Z,25.57
2018-07-27T12:17:32.394Z,25.48
2018-07-27T12:18:32.363Z,25.26
2018-07-27T12:19:32.332Z,24.98
2018-07-27T12:20:32.317Z,24.10
2018-07-27T12:21:32.463Z,24.49
2018-07-27T12:22:32.235Z,24.11
2018-07-27T12:23:32.204Z,23.81
2018-07-27T12:24:32.172Z,23.41
2018-07-27T12:25:32.142Z,22.64
2018-07-27T12:26:32.112Z,22.34
2018-07-27T12:27:32.082Z,22.47
2018-07-27T12:28:32.042Z,21.68
2018-07-27T12:29:32.012Z,22.19
2018-07-27T12:30:31.978Z,22.30
2018-07-27T12:31:31.948Z,22.39
2018-07-27T12:32:31.924Z,23.19
2018-07-27T12:33:31.885Z,22.89
2018-07-27T12:34:31.853Z,21.90
2018-07-27T12:35:31.826Z,22.60
2018-07-27T12:36:31.791Z,22.20
2018-07-27T12:37:31.761Z,22.39
2018-07-27T12:38:31.726Z,22.58
2018-07-27T12:39:31.698Z,22.77
2018-07-27T12:40:31.665Z,22.85
2018-07-27T12:41:31.632Z,23.03
2018-07-27T12:42:31.607Z,23.22
2018-07-27T12:43:31.572Z,24.60
2018-07-27T12:44:31.540Z,24.68
2018-07-27T12:45:31.514Z,24.07
2018-07-27T12:46:31.477Z,25.05
2018-07-27T12:47:31.447Z,26.03
2018-07-27T12:48:31.418Z,26.12
2018-07-27T12:49:31.383Z,25.51
2018-07-27T12:50:31.350Z,24.91
2018-07-27T12:51:31.319Z,26.38
2018-07-27T12:52:31.292Z,25.39